sensor_id;sensor_type;location;lat;lon;timestamp;temperature;humidity
1590;DHT22;788;48.720;9.158;2022-09-21T00:01:47;8.20;99.90
1590;DHT22;788;48.720;9.158;2022-09-21T00:04:14;8.20;99.90
1590;DHT22;788;48.720;9.158;2022-09-21T00:06:41;8.20;99.90
1590;DHT22;788;48.720;9.158;2022-09-21T00:09:08;8.10;99.90
1590;DHT22;788;48.720;9.158;2022-09-21T00:11:35;8.10;99.90
1590;DHT22;788;48.720;9.158;2022-09-21T00:14:04;8.00;99.90
1590;DHT22;788;48.720;9.158;2022-09-21T00:16:31;8.00;99.90
1590;DHT22;788;48.720;9.158;2022-09-21T00:19:00;8.00;99.90
1590;DHT22;788;48.720;9.158;2022-09-21T00:21:27;8.00;99.90
1590;DHT22;788;48.720;9.158;2022-09-21T00:23:55;8.00;99.90
1590;DHT22;788;48.720;9.158;2022-09-21T00:26:23;8.00;99.90
1590;DHT22;788;48.720;9.158;2022-09-21T00:28:52;7.90;99.90
1590;DHT22;788;48.720;9.158;2022-09-21T00:31:20;7.90;99.90
1590;DHT22;788;48.720;9.158;2022-09-21T00:33:47;7.90;99.90
1590;DHT22;788;48.720;9.158;2022-09-21T00:36:18;7.80;99.90
1590;DHT22;788;48.720;9.158;2022-09-21T00:38:49;7.80;99.90
1590;DHT22;788;48.720;9.158;2022-09-21T00:41:16;7.80;99.90
1590;DHT22;788;48.720;9.158;2022-09-21T00:43:46;7.80;99.90
1590;DHT22;788;48.720;9.158;2022-09-21T00:46:16;7.80;99.90
1590;DHT22;788;48.720;9.158;2022-09-21T00:48:47;7.70;99.90
1590;DHT22;788;48.720;9.158;2022-09-21T00:51:16;7.70;99.90
1590;DHT22;788;48.720;9.158;2022-09-21T00:53:43;7.70;99.90
1590;DHT22;788;48.720;9.158;2022-09-21T00:56:11;7.70;99.90
1590;DHT22;788;48.720;9.158;2022-09-21T00:58:43;7.60;99.90
1590;DHT22;788;48.720;9.158;2022-09-21T01:01:12;7.60;99.90
1590;DHT22;788;48.720;9.158;2022-09-21T01:03:40;7.60;99.90
1590;DHT22;788;48.720;9.158;2022-09-21T01:06:09;7.60;99.90
1590;DHT22;788;48.720;9.158;2022-09-21T01:08:37;7.60;99.90
1590;DHT22;788;48.720;9.158;2022-09-21T01:11:26;7.50;99.90
1590;DHT22;788;48.720;9.158;2022-09-21T01:14:10;7.50;99.90
1590;DHT22;788;48.720;9.158;2022-09-21T01:16:46;7.50;99.90
1590;DHT22;788;48.720;9.158;2022-09-21T01:19:45;7.40;99.90
1590;DHT22;788;48.720;9.158;2022-09-21T01:22:23;7.40;99.90
1590;DHT22;788;48.720;9.158;2022-09-21T01:25:05;7.40;99.90
1590;DHT22;788;48.720;9.158;2022-09-21T01:27:44;7.40;99.90
1590;DHT22;788;48.720;9.158;2022-09-21T01:30:16;7.40;99.90
1590;DHT22;788;48.720;9.158;2022-09-21T01:32:47;7.30;99.90
1590;DHT22;788;48.720;9.158;2022-09-21T01:35:18;7.30;99.90
1590;DHT22;788;48.720;9.158;2022-09-21T01:37:48;7.30;99.90
1590;DHT22;788;48.720;9.158;2022-09-21T01:40:20;7.30;99.90
1590;DHT22;788;48.720;9.158;2022-09-21T01:42:49;7.30;99.90
1590;DHT22;788;48.720;9.158;2022-09-21T01:45:22;7.30;99.90
1590;DHT22;788;48.720;9.158;2022-09-21T01:47:53;7.20;99.90
1590;DHT22;788;48.720;9.158;2022-09-21T01:50:21;7.20;99.90
1590;DHT22;788;48.720;9.158;2022-09-21T01:52:51;7.20;99.90
1590;DHT22;788;48.720;9.158;2022-09-21T01:55:23;7.20;99.90
1590;DHT22;788;48.720;9.158;2022-09-21T01:57:55;7.20;99.90
1590;DHT22;788;48.720;9.158;2022-09-21T02:00:25;7.20;99.90
1590;DHT22;788;48.720;9.158;2022-09-21T02:02:56;7.10;99.90
1590;DHT22;788;48.720;9.158;2022-09-21T02:05:25;7.10;99.90
1590;DHT22;788;48.720;9.158;2022-09-21T02:07:52;7.10;99.90
1590;DHT22;788;48.720;9.158;2022-09-21T02:10:23;7.10;99.90
1590;DHT22;788;48.720;9.158;2022-09-21T02:12:55;7.10;99.90
1590;DHT22;788;48.720;9.158;2022-09-21T02:15:31;7.00;99.90
1590;DHT22;788;48.720;9.158;2022-09-21T02:18:06;7.00;99.90
1590;DHT22;788;48.720;9.158;2022-09-21T02:20:43;7.00;99.90
1590;DHT22;788;48.720;9.158;2022-09-21T02:23:18;7.00;99.90
1590;DHT22;788;48.720;9.158;2022-09-21T02:25:53;7.00;99.90
1590;DHT22;788;48.720;9.158;2022-09-21T02:28:30;7.00;99.90
1590;DHT22;788;48.720;9.158;2022-09-21T02:31:07;6.90;99.90
1590;DHT22;788;48.720;9.158;2022-09-21T02:33:43;6.90;99.90
1590;DHT22;788;48.720;9.158;2022-09-21T02:36:17;6.90;99.90
1590;DHT22;788;48.720;9.158;2022-09-21T02:38:50;6.90;99.90
1590;DHT22;788;48.720;9.158;2022-09-21T02:41:21;6.90;99.90
1590;DHT22;788;48.720;9.158;2022-09-21T02:43:57;6.90;99.90
1590;DHT22;788;48.720;9.158;2022-09-21T02:46:29;6.80;99.90
1590;DHT22;788;48.720;9.158;2022-09-21T02:49:01;6.80;99.90
1590;DHT22;788;48.720;9.158;2022-09-21T02:51:32;6.80;99.90
1590;DHT22;788;48.720;9.158;2022-09-21T02:54:03;6.80;99.90
1590;DHT22;788;48.720;9.158;2022-09-21T02:56:32;6.80;99.90
1590;DHT22;788;48.720;9.158;2022-09-21T02:59:02;6.70;99.90
1590;DHT22;788;48.720;9.158;2022-09-21T03:01:32;6.70;99.90
1590;DHT22;788;48.720;9.158;2022-09-21T03:03:59;6.70;99.90
1590;DHT22;788;48.720;9.158;2022-09-21T03:06:26;6.70;99.90
1590;DHT22;788;48.720;9.158;2022-09-21T03:08:53;6.70;99.90
1590;DHT22;788;48.720;9.158;2022-09-21T03:11:22;6.70;99.90
1590;DHT22;788;48.720;9.158;2022-09-21T03:13:49;6.70;99.90
1590;DHT22;788;48.720;9.158;2022-09-21T03:16:16;6.70;99.90
1590;DHT22;788;48.720;9.158;2022-09-21T03:18:44;6.70;99.90
1590;DHT22;788;48.720;9.158;2022-09-21T03:21:11;6.60;99.90
1590;DHT22;788;48.720;9.158;2022-09-21T03:23:38;6.60;99.90
1590;DHT22;788;48.720;9.158;2022-09-21T03:26:05;6.60;99.90
1590;DHT22;788;48.720;9.158;2022-09-21T03:28:32;6.60;99.90
1590;DHT22;788;48.720;9.158;2022-09-21T03:30:59;6.60;99.90
1590;DHT22;788;48.720;9.158;2022-09-21T03:33:26;6.60;99.90
1590;DHT22;788;48.720;9.158;2022-09-21T03:35:54;6.60;99.90
1590;DHT22;788;48.720;9.158;2022-09-21T03:38:21;6.60;99.90
1590;DHT22;788;48.720;9.158;2022-09-21T03:40:49;6.60;99.90
1590;DHT22;788;48.720;9.158;2022-09-21T03:43:16;6.60;99.90
1590;DHT22;788;48.720;9.158;2022-09-21T03:45:44;6.50;99.90
1590;DHT22;788;48.720;9.158;2022-09-21T03:48:11;6.50;99.90
1590;DHT22;788;48.720;9.158;2022-09-21T03:50:40;6.50;99.90
1590;DHT22;788;48.720;9.158;2022-09-21T03:53:08;6.50;99.90
1590;DHT22;788;48.720;9.158;2022-09-21T03:55:36;6.50;99.90
1590;DHT22;788;48.720;9.158;2022-09-21T03:58:02;6.50;99.90
1590;DHT22;788;48.720;9.158;2022-09-21T04:00:30;6.40;99.90
1590;DHT22;788;48.720;9.158;2022-09-21T04:02:57;6.50;99.90
1590;DHT22;788;48.720;9.158;2022-09-21T04:05:24;6.40;99.90
1590;DHT22;788;48.720;9.158;2022-09-21T04:07:54;6.40;99.90
1590;DHT22;788;48.720;9.158;2022-09-21T04:10:23;6.40;99.90
1590;DHT22;788;48.720;9.158;2022-09-21T04:12:55;6.40;99.90
1590;DHT22;788;48.720;9.158;2022-09-21T04:15:22;6.40;99.90
1590;DHT22;788;48.720;9.158;2022-09-21T04:17:50;6.40;99.90
1590;DHT22;788;48.720;9.158;2022-09-21T04:20:17;6.40;99.90
1590;DHT22;788;48.720;9.158;2022-09-21T04:22:44;6.30;99.90
1590;DHT22;788;48.720;9.158;2022-09-21T04:25:12;6.30;99.90
1590;DHT22;788;48.720;9.158;2022-09-21T04:27:40;6.30;99.90
1590;DHT22;788;48.720;9.158;2022-09-21T04:30:10;6.20;99.90
1590;DHT22;788;48.720;9.158;2022-09-21T04:32:37;6.30;99.90
1590;DHT22;788;48.720;9.158;2022-09-21T04:35:04;6.20;99.90
1590;DHT22;788;48.720;9.158;2022-09-21T04:37:31;6.20;99.90
1590;DHT22;788;48.720;9.158;2022-09-21T04:39:57;6.20;99.90
1590;DHT22;788;48.720;9.158;2022-09-21T04:42:24;6.20;99.90
1590;DHT22;788;48.720;9.158;2022-09-21T04:44:53;6.10;99.90
1590;DHT22;788;48.720;9.158;2022-09-21T04:47:28;6.10;99.90
1590;DHT22;788;48.720;9.158;2022-09-21T04:49:55;6.10;99.90
1590;DHT22;788;48.720;9.158;2022-09-21T04:52:22;6.10;99.90
1590;DHT22;788;48.720;9.158;2022-09-21T04:54:48;6.10;99.90
1590;DHT22;788;48.720;9.158;2022-09-21T04:57:15;6.10;99.90
1590;DHT22;788;48.720;9.158;2022-09-21T04:59:42;6.10;99.90
1590;DHT22;788;48.720;9.158;2022-09-21T05:02:10;6.10;99.90
1590;DHT22;788;48.720;9.158;2022-09-21T05:04:37;6.10;99.90
1590;DHT22;788;48.720;9.158;2022-09-21T05:07:03;6.10;99.90
1590;DHT22;788;48.720;9.158;2022-09-21T05:09:30;6.10;99.90
1590;DHT22;788;48.720;9.158;2022-09-21T05:12:15;6.10;99.90
1590;DHT22;788;48.720;9.158;2022-09-21T05:14:42;6.10;99.90
1590;DHT22;788;48.720;9.158;2022-09-21T05:17:11;6.10;99.90
1590;DHT22;788;48.720;9.158;2022-09-21T05:19:38;6.10;99.90
1590;DHT22;788;48.720;9.158;2022-09-21T05:22:05;6.10;99.90
1590;DHT22;788;48.720;9.158;2022-09-21T05:24:36;6.10;99.90
1590;DHT22;788;48.720;9.158;2022-09-21T05:27:03;6.10;99.90
1590;DHT22;788;48.720;9.158;2022-09-21T05:29:31;6.10;99.90
1590;DHT22;788;48.720;9.158;2022-09-21T05:32:04;6.20;99.90
1590;DHT22;788;48.720;9.158;2022-09-21T05:34:44;6.20;99.90
1590;DHT22;788;48.720;9.158;2022-09-21T05:37:27;6.20;99.90
1590;DHT22;788;48.720;9.158;2022-09-21T05:40:03;6.20;99.90
1590;DHT22;788;48.720;9.158;2022-09-21T05:42:31;6.20;99.90
1590;DHT22;788;48.720;9.158;2022-09-21T05:44:59;6.20;99.90
1590;DHT22;788;48.720;9.158;2022-09-21T05:47:49;6.20;99.90
1590;DHT22;788;48.720;9.158;2022-09-21T05:50:31;6.20;99.90
1590;DHT22;788;48.720;9.158;2022-09-21T05:53:18;6.30;99.90
1590;DHT22;788;48.720;9.158;2022-09-21T05:55:54;6.30;99.90
1590;DHT22;788;48.720;9.158;2022-09-21T05:58:28;6.40;99.90
1590;DHT22;788;48.720;9.158;2022-09-21T06:01:09;6.40;99.90
1590;DHT22;788;48.720;9.158;2022-09-21T06:03:38;6.40;99.90
1590;DHT22;788;48.720;9.158;2022-09-21T06:06:08;6.40;99.90
1590;DHT22;788;48.720;9.158;2022-09-21T06:08:35;6.50;99.90
1590;DHT22;788;48.720;9.158;2022-09-21T06:11:02;6.50;99.90
1590;DHT22;788;48.720;9.158;2022-09-21T06:13:28;6.50;99.90
1590;DHT22;788;48.720;9.158;2022-09-21T06:15:55;6.60;99.90
1590;DHT22;788;48.720;9.158;2022-09-21T06:18:23;6.70;99.90
1590;DHT22;788;48.720;9.158;2022-09-21T06:20:49;6.80;99.90
1590;DHT22;788;48.720;9.158;2022-09-21T06:23:17;6.80;99.90
1590;DHT22;788;48.720;9.158;2022-09-21T06:25:50;6.90;99.90
1590;DHT22;788;48.720;9.158;2022-09-21T06:28:17;7.00;99.90
1590;DHT22;788;48.720;9.158;2022-09-21T06:30:49;7.10;99.90
1590;DHT22;788;48.720;9.158;2022-09-21T06:33:16;7.10;99.90
1590;DHT22;788;48.720;9.158;2022-09-21T06:35:51;7.20;99.90
1590;DHT22;788;48.720;9.158;2022-09-21T06:38:20;7.30;99.90
1590;DHT22;788;48.720;9.158;2022-09-21T06:40:48;7.40;99.90
1590;DHT22;788;48.720;9.158;2022-09-21T06:43:18;7.50;99.90
1590;DHT22;788;48.720;9.158;2022-09-21T06:45:52;7.50;99.90
1590;DHT22;788;48.720;9.158;2022-09-21T06:48:19;7.60;99.90
1590;DHT22;788;48.720;9.158;2022-09-21T06:50:47;7.70;99.90
1590;DHT22;788;48.720;9.158;2022-09-21T06:56:08;7.80;99.90
1590;DHT22;788;48.720;9.158;2022-09-21T06:58:36;7.90;99.90
1590;DHT22;788;48.720;9.158;2022-09-21T07:01:04;8.00;99.90
1590;DHT22;788;48.720;9.158;2022-09-21T07:03:31;8.10;99.90
1590;DHT22;788;48.720;9.158;2022-09-21T07:05:58;8.30;99.90
1590;DHT22;788;48.720;9.158;2022-09-21T07:08:25;8.30;99.90
1590;DHT22;788;48.720;9.158;2022-09-21T07:10:53;8.40;99.90
1590;DHT22;788;48.720;9.158;2022-09-21T07:13:44;8.50;99.90
1590;DHT22;788;48.720;9.158;2022-09-21T07:16:11;8.60;99.90
1590;DHT22;788;48.720;9.158;2022-09-21T07:18:39;8.70;99.90
1590;DHT22;788;48.720;9.158;2022-09-21T07:21:07;8.70;99.90
1590;DHT22;788;48.720;9.158;2022-09-21T07:23:34;8.70;99.90
1590;DHT22;788;48.720;9.158;2022-09-21T07:26:03;8.80;99.90
1590;DHT22;788;48.720;9.158;2022-09-21T07:28:29;8.90;99.90
1590;DHT22;788;48.720;9.158;2022-09-21T07:30:58;9.00;99.90
1590;DHT22;788;48.720;9.158;2022-09-21T07:33:25;9.10;99.90
1590;DHT22;788;48.720;9.158;2022-09-21T07:35:52;9.20;99.90
1590;DHT22;788;48.720;9.158;2022-09-21T07:38:21;9.20;99.90
1590;DHT22;788;48.720;9.158;2022-09-21T07:40:48;9.30;99.90
1590;DHT22;788;48.720;9.158;2022-09-21T07:43:15;9.40;99.90
1590;DHT22;788;48.720;9.158;2022-09-21T07:45:42;9.50;99.90
1590;DHT22;788;48.720;9.158;2022-09-21T07:48:10;9.60;99.90
1590;DHT22;788;48.720;9.158;2022-09-21T07:50:37;9.60;99.90
1590;DHT22;788;48.720;9.158;2022-09-21T07:53:03;9.70;99.90
1590;DHT22;788;48.720;9.158;2022-09-21T07:55:30;9.90;99.90
1590;DHT22;788;48.720;9.158;2022-09-21T07:57:57;10.00;99.90
1590;DHT22;788;48.720;9.158;2022-09-21T08:00:42;10.10;99.90
1590;DHT22;788;48.720;9.158;2022-09-21T08:03:10;10.20;99.90
1590;DHT22;788;48.720;9.158;2022-09-21T08:05:36;10.30;99.90
1590;DHT22;788;48.720;9.158;2022-09-21T08:08:03;10.40;99.90
1590;DHT22;788;48.720;9.158;2022-09-21T08:10:30;10.50;99.90
1590;DHT22;788;48.720;9.158;2022-09-21T08:12:57;10.60;99.90
1590;DHT22;788;48.720;9.158;2022-09-21T08:15:24;10.70;99.90
1590;DHT22;788;48.720;9.158;2022-09-21T08:17:51;10.70;99.90
1590;DHT22;788;48.720;9.158;2022-09-21T08:20:19;10.90;99.90
1590;DHT22;788;48.720;9.158;2022-09-21T08:22:47;11.00;99.90
1590;DHT22;788;48.720;9.158;2022-09-21T08:25:13;11.10;99.90
1590;DHT22;788;48.720;9.158;2022-09-21T08:27:40;11.20;99.90
1590;DHT22;788;48.720;9.158;2022-09-21T08:30:08;11.30;99.90
1590;DHT22;788;48.720;9.158;2022-09-21T08:32:40;11.30;99.90
1590;DHT22;788;48.720;9.158;2022-09-21T08:35:07;11.40;99.90
1590;DHT22;788;48.720;9.158;2022-09-21T08:37:36;11.50;99.90
1590;DHT22;788;48.720;9.158;2022-09-21T08:40:03;11.60;99.90
1590;DHT22;788;48.720;9.158;2022-09-21T08:42:39;11.70;99.90
1590;DHT22;788;48.720;9.158;2022-09-21T08:45:12;11.90;99.90
1590;DHT22;788;48.720;9.158;2022-09-21T08:47:41;12.00;99.90
1590;DHT22;788;48.720;9.158;2022-09-21T08:50:22;12.10;99.90
1590;DHT22;788;48.720;9.158;2022-09-21T08:52:51;12.20;99.90
1590;DHT22;788;48.720;9.158;2022-09-21T08:55:23;12.30;99.90
1590;DHT22;788;48.720;9.158;2022-09-21T08:57:49;12.40;99.90
1590;DHT22;788;48.720;9.158;2022-09-21T09:00:18;12.50;99.90
1590;DHT22;788;48.720;9.158;2022-09-21T09:05:46;12.80;99.90
1590;DHT22;788;48.720;9.158;2022-09-21T09:11:48;13.00;99.90
1590;DHT22;788;48.720;9.158;2022-09-21T09:14:30;13.10;99.90
1590;DHT22;788;48.720;9.158;2022-09-21T09:17:15;13.20;99.90
1590;DHT22;788;48.720;9.158;2022-09-21T09:19:48;13.40;99.90
1590;DHT22;788;48.720;9.158;2022-09-21T09:22:20;13.50;99.90
1590;DHT22;788;48.720;9.158;2022-09-21T09:24:51;13.70;99.90
1590;DHT22;788;48.720;9.158;2022-09-21T09:27:21;13.80;99.90
1590;DHT22;788;48.720;9.158;2022-09-21T09:29:54;14.00;99.90
1590;DHT22;788;48.720;9.158;2022-09-21T09:32:31;14.10;99.90
1590;DHT22;788;48.720;9.158;2022-09-21T09:35:03;14.10;99.90
1590;DHT22;788;48.720;9.158;2022-09-21T09:37:35;14.20;99.90
1590;DHT22;788;48.720;9.158;2022-09-21T09:40:10;14.20;99.90
1590;DHT22;788;48.720;9.158;2022-09-21T09:42:46;14.30;99.90
1590;DHT22;788;48.720;9.158;2022-09-21T09:45:39;14.50;99.90
1590;DHT22;788;48.720;9.158;2022-09-21T09:48:28;14.70;99.90
1590;DHT22;788;48.720;9.158;2022-09-21T09:50:57;14.70;99.90
1590;DHT22;788;48.720;9.158;2022-09-21T09:53:25;14.80;99.90
1590;DHT22;788;48.720;9.158;2022-09-21T09:55:55;14.90;99.50
1590;DHT22;788;48.720;9.158;2022-09-21T09:58:24;15.10;99.70
1590;DHT22;788;48.720;9.158;2022-09-21T10:00:54;15.10;99.70
1590;DHT22;788;48.720;9.158;2022-09-21T10:03:22;15.30;99.30
1590;DHT22;788;48.720;9.158;2022-09-21T10:05:50;15.40;99.30
1590;DHT22;788;48.720;9.158;2022-09-21T10:08:29;15.60;98.90
1590;DHT22;788;48.720;9.158;2022-09-21T10:10:57;15.80;98.70
1590;DHT22;788;48.720;9.158;2022-09-21T10:13:27;16.00;97.30
1590;DHT22;788;48.720;9.158;2022-09-21T10:15:57;16.00;96.30
1590;DHT22;788;48.720;9.158;2022-09-21T10:18:33;16.20;96.70
1590;DHT22;788;48.720;9.158;2022-09-21T10:21:04;16.40;97.20
1590;DHT22;788;48.720;9.158;2022-09-21T10:23:32;16.60;96.40
1590;DHT22;788;48.720;9.158;2022-09-21T10:26:02;16.90;97.20
1590;DHT22;788;48.720;9.158;2022-09-21T10:28:30;17.20;95.30
1590;DHT22;788;48.720;9.158;2022-09-21T10:31:12;17.50;94.50
1590;DHT22;788;48.720;9.158;2022-09-21T10:33:51;17.80;94.20
1590;DHT22;788;48.720;9.158;2022-09-21T10:36:31;18.10;93.80
1590;DHT22;788;48.720;9.158;2022-09-21T10:39:17;18.40;94.10
1590;DHT22;788;48.720;9.158;2022-09-21T10:41:49;18.70;93.00
1590;DHT22;788;48.720;9.158;2022-09-21T10:44:18;18.90;92.90
1590;DHT22;788;48.720;9.158;2022-09-21T10:46:47;19.00;92.40
1590;DHT22;788;48.720;9.158;2022-09-21T10:49:18;19.10;92.00
1590;DHT22;788;48.720;9.158;2022-09-21T10:51:47;19.00;91.50
1590;DHT22;788;48.720;9.158;2022-09-21T10:54:19;18.90;91.40
1590;DHT22;788;48.720;9.158;2022-09-21T10:56:53;18.90;91.60
1590;DHT22;788;48.720;9.158;2022-09-21T10:59:24;18.80;91.70
1590;DHT22;788;48.720;9.158;2022-09-21T11:01:52;18.70;91.20
1590;DHT22;788;48.720;9.158;2022-09-21T11:04:27;18.60;91.30
1590;DHT22;788;48.720;9.158;2022-09-21T11:06:59;18.70;92.20
1590;DHT22;788;48.720;9.158;2022-09-21T11:09:32;19.10;90.20
1590;DHT22;788;48.720;9.158;2022-09-21T11:12:07;19.70;90.80
1590;DHT22;788;48.720;9.158;2022-09-21T11:14:43;20.60;89.10
1590;DHT22;788;48.720;9.158;2022-09-21T11:17:16;21.50;83.50
1590;DHT22;788;48.720;9.158;2022-09-21T11:19:48;22.00;82.30
1590;DHT22;788;48.720;9.158;2022-09-21T11:22:22;22.00;78.30
1590;DHT22;788;48.720;9.158;2022-09-21T11:24:53;21.90;77.90
1590;DHT22;788;48.720;9.158;2022-09-21T11:27:27;21.80;78.60
1590;DHT22;788;48.720;9.158;2022-09-21T11:30:00;22.10;77.60
1590;DHT22;788;48.720;9.158;2022-09-21T11:32:53;22.60;77.80
1590;DHT22;788;48.720;9.158;2022-09-21T11:35:44;23.40;72.80
1590;DHT22;788;48.720;9.158;2022-09-21T11:38:17;24.00;68.90
1590;DHT22;788;48.720;9.158;2022-09-21T11:41:05;24.50;69.50
1590;DHT22;788;48.720;9.158;2022-09-21T11:43:49;25.40;66.00
1590;DHT22;788;48.720;9.158;2022-09-21T11:46:24;26.20;62.80
1590;DHT22;788;48.720;9.158;2022-09-21T11:49:06;26.80;60.10
1590;DHT22;788;48.720;9.158;2022-09-21T11:51:49;27.60;57.10
1590;DHT22;788;48.720;9.158;2022-09-21T11:54:39;28.00;56.30
1590;DHT22;788;48.720;9.158;2022-09-21T11:57:14;28.30;54.40
1590;DHT22;788;48.720;9.158;2022-09-21T11:59:59;28.80;53.30
1590;DHT22;788;48.720;9.158;2022-09-21T12:02:44;29.30;51.80
1590;DHT22;788;48.720;9.158;2022-09-21T12:05:22;29.60;50.00
1590;DHT22;788;48.720;9.158;2022-09-21T12:08:16;29.30;49.60
1590;DHT22;788;48.720;9.158;2022-09-21T12:10:51;29.20;50.10
1590;DHT22;788;48.720;9.158;2022-09-21T12:13:26;29.50;50.10
1590;DHT22;788;48.720;9.158;2022-09-21T12:16:01;29.90;48.00
1590;DHT22;788;48.720;9.158;2022-09-21T12:18:35;30.20;47.70
1590;DHT22;788;48.720;9.158;2022-09-21T12:21:09;30.40;45.40
1590;DHT22;788;48.720;9.158;2022-09-21T12:23:42;30.30;44.70
1590;DHT22;788;48.720;9.158;2022-09-21T12:26:10;30.20;44.00
1590;DHT22;788;48.720;9.158;2022-09-21T12:28:41;30.40;45.40
1590;DHT22;788;48.720;9.158;2022-09-21T12:31:17;30.50;44.10
1590;DHT22;788;48.720;9.158;2022-09-21T12:33:48;30.20;43.80
1590;DHT22;788;48.720;9.158;2022-09-21T12:36:20;29.80;43.90
1590;DHT22;788;48.720;9.158;2022-09-21T12:38:52;29.20;44.40
1590;DHT22;788;48.720;9.158;2022-09-21T12:41:26;29.10;46.10
1590;DHT22;788;48.720;9.158;2022-09-21T12:44:01;29.30;45.20
1590;DHT22;788;48.720;9.158;2022-09-21T12:46:36;29.80;44.20
1590;DHT22;788;48.720;9.158;2022-09-21T12:49:10;30.20;43.00
1590;DHT22;788;48.720;9.158;2022-09-21T12:51:42;30.60;43.20
1590;DHT22;788;48.720;9.158;2022-09-21T12:54:19;31.10;43.10
1590;DHT22;788;48.720;9.158;2022-09-21T12:56:55;31.30;41.90
1590;DHT22;788;48.720;9.158;2022-09-21T12:59:30;31.60;40.40
1590;DHT22;788;48.720;9.158;2022-09-21T13:02:14;32.20;41.00
1590;DHT22;788;48.720;9.158;2022-09-21T13:04:54;32.40;39.40
1590;DHT22;788;48.720;9.158;2022-09-21T13:07:43;32.00;38.30
1590;DHT22;788;48.720;9.158;2022-09-21T13:10:17;32.10;38.40
1590;DHT22;788;48.720;9.158;2022-09-21T13:12:50;32.50;37.90
1590;DHT22;788;48.720;9.158;2022-09-21T13:15:23;32.90;37.10
1590;DHT22;788;48.720;9.158;2022-09-21T13:18:00;33.20;36.60
1590;DHT22;788;48.720;9.158;2022-09-21T13:20:34;33.40;36.80
1590;DHT22;788;48.720;9.158;2022-09-21T13:23:31;33.60;36.10
1590;DHT22;788;48.720;9.158;2022-09-21T13:26:42;34.00;35.10
1590;DHT22;788;48.720;9.158;2022-09-21T13:29:35;34.20;33.50
1590;DHT22;788;48.720;9.158;2022-09-21T13:32:23;34.30;34.80
1590;DHT22;788;48.720;9.158;2022-09-21T13:38:24;34.40;32.90
1590;DHT22;788;48.720;9.158;2022-09-21T13:40:57;34.00;33.50
1590;DHT22;788;48.720;9.158;2022-09-21T13:46:59;33.70;33.50
1590;DHT22;788;48.720;9.158;2022-09-21T13:49:32;33.90;33.40
1590;DHT22;788;48.720;9.158;2022-09-21T13:52:04;33.90;32.10
1590;DHT22;788;48.720;9.158;2022-09-21T13:54:34;33.90;31.80
1590;DHT22;788;48.720;9.158;2022-09-21T13:57:06;34.00;32.10
1590;DHT22;788;48.720;9.158;2022-09-21T13:59:41;33.80;32.20
1590;DHT22;788;48.720;9.158;2022-09-21T14:02:32;33.60;32.20
1590;DHT22;788;48.720;9.158;2022-09-21T14:05:05;33.40;32.80
1590;DHT22;788;48.720;9.158;2022-09-21T14:07:34;33.10;32.90
1590;DHT22;788;48.720;9.158;2022-09-21T14:10:07;32.70;33.20
1590;DHT22;788;48.720;9.158;2022-09-21T14:12:39;32.20;32.90
1590;DHT22;788;48.720;9.158;2022-09-21T14:15:35;31.60;33.60
1590;DHT22;788;48.720;9.158;2022-09-21T14:18:34;30.70;34.40
1590;DHT22;788;48.720;9.158;2022-09-21T14:21:16;30.10;35.40
1590;DHT22;788;48.720;9.158;2022-09-21T14:24:19;29.50;36.80
1590;DHT22;788;48.720;9.158;2022-09-21T14:27:00;29.10;36.70
1590;DHT22;788;48.720;9.158;2022-09-21T14:29:35;28.50;36.70
1590;DHT22;788;48.720;9.158;2022-09-21T14:32:09;27.80;37.20
1590;DHT22;788;48.720;9.158;2022-09-21T14:34:39;27.30;38.20
1590;DHT22;788;48.720;9.158;2022-09-21T14:37:14;26.70;38.60
1590;DHT22;788;48.720;9.158;2022-09-21T14:39:47;25.90;39.40
1590;DHT22;788;48.720;9.158;2022-09-21T14:42:17;25.40;40.40
1590;DHT22;788;48.720;9.158;2022-09-21T14:44:46;24.80;41.10
1590;DHT22;788;48.720;9.158;2022-09-21T14:47:39;24.10;41.80
1590;DHT22;788;48.720;9.158;2022-09-21T14:50:29;23.60;43.10
1590;DHT22;788;48.720;9.158;2022-09-21T14:53:21;23.00;44.30
1590;DHT22;788;48.720;9.158;2022-09-21T14:56:03;22.60;45.20
1590;DHT22;788;48.720;9.158;2022-09-21T14:58:45;22.40;46.40
1590;DHT22;788;48.720;9.158;2022-09-21T15:01:33;22.20;46.40
1590;DHT22;788;48.720;9.158;2022-09-21T15:04:17;22.10;46.40
1590;DHT22;788;48.720;9.158;2022-09-21T15:06:53;22.10;47.80
1590;DHT22;788;48.720;9.158;2022-09-21T15:09:58;22.60;47.30
1590;DHT22;788;48.720;9.158;2022-09-21T15:12:52;23.40;45.30
1590;DHT22;788;48.720;9.158;2022-09-21T15:15:34;23.90;44.10
1590;DHT22;788;48.720;9.158;2022-09-21T15:18:15;23.70;44.00
1590;DHT22;788;48.720;9.158;2022-09-21T15:20:53;23.50;44.30
1590;DHT22;788;48.720;9.158;2022-09-21T15:23:26;23.30;44.70
1590;DHT22;788;48.720;9.158;2022-09-21T15:25:57;22.90;44.90
1590;DHT22;788;48.720;9.158;2022-09-21T15:28:33;22.50;44.70
1590;DHT22;788;48.720;9.158;2022-09-21T15:31:01;22.10;45.10
1590;DHT22;788;48.720;9.158;2022-09-21T15:33:28;21.70;45.40
1590;DHT22;788;48.720;9.158;2022-09-21T15:35:59;21.20;45.20
1590;DHT22;788;48.720;9.158;2022-09-21T15:38:28;20.70;46.50
1590;DHT22;788;48.720;9.158;2022-09-21T15:40:55;20.30;48.00
1590;DHT22;788;48.720;9.158;2022-09-21T15:43:22;20.00;47.60
1590;DHT22;788;48.720;9.158;2022-09-21T15:45:52;19.80;48.60
1590;DHT22;788;48.720;9.158;2022-09-21T15:48:20;19.60;49.50
1590;DHT22;788;48.720;9.158;2022-09-21T15:50:50;19.30;49.60
1590;DHT22;788;48.720;9.158;2022-09-21T15:53:21;19.20;50.00
1590;DHT22;788;48.720;9.158;2022-09-21T15:55:49;19.10;49.90
1590;DHT22;788;48.720;9.158;2022-09-21T15:58:26;19.00;50.10
1590;DHT22;788;48.720;9.158;2022-09-21T16:00:57;18.80;50.10
1590;DHT22;788;48.720;9.158;2022-09-21T16:03:25;18.70;50.60
1590;DHT22;788;48.720;9.158;2022-09-21T16:05:53;18.60;50.50
1590;DHT22;788;48.720;9.158;2022-09-21T16:08:27;18.60;50.60
1590;DHT22;788;48.720;9.158;2022-09-21T16:11:11;18.60;51.00
1590;DHT22;788;48.720;9.158;2022-09-21T16:13:39;18.50;51.20
1590;DHT22;788;48.720;9.158;2022-09-21T16:16:25;18.50;51.10
1590;DHT22;788;48.720;9.158;2022-09-21T16:18:53;18.50;51.30
1590;DHT22;788;48.720;9.158;2022-09-21T16:21:22;18.40;51.70
1590;DHT22;788;48.720;9.158;2022-09-21T16:23:53;18.40;52.00
1590;DHT22;788;48.720;9.158;2022-09-21T16:26:24;18.40;52.10
1590;DHT22;788;48.720;9.158;2022-09-21T16:29:16;18.40;51.90
1590;DHT22;788;48.720;9.158;2022-09-21T16:31:45;18.30;52.20
1590;DHT22;788;48.720;9.158;2022-09-21T16:34:40;18.30;52.60
1590;DHT22;788;48.720;9.158;2022-09-21T16:37:22;18.30;52.90
1590;DHT22;788;48.720;9.158;2022-09-21T16:39:50;18.30;52.80
1590;DHT22;788;48.720;9.158;2022-09-21T16:42:21;18.30;52.80
1590;DHT22;788;48.720;9.158;2022-09-21T16:44:48;18.20;52.50
1590;DHT22;788;48.720;9.158;2022-09-21T16:47:18;18.20;52.50
1590;DHT22;788;48.720;9.158;2022-09-21T16:49:47;18.20;52.70
1590;DHT22;788;48.720;9.158;2022-09-21T16:52:14;18.20;53.00
1590;DHT22;788;48.720;9.158;2022-09-21T16:54:41;18.10;53.20
1590;DHT22;788;48.720;9.158;2022-09-21T16:57:09;18.10;53.20
1590;DHT22;788;48.720;9.158;2022-09-21T16:59:37;18.10;53.30
1590;DHT22;788;48.720;9.158;2022-09-21T17:02:04;18.10;53.30
1590;DHT22;788;48.720;9.158;2022-09-21T17:04:33;18.10;53.00
1590;DHT22;788;48.720;9.158;2022-09-21T17:07:01;18.10;53.10
1590;DHT22;788;48.720;9.158;2022-09-21T17:09:31;18.00;53.60
1590;DHT22;788;48.720;9.158;2022-09-21T17:11:58;17.90;53.80
1590;DHT22;788;48.720;9.158;2022-09-21T17:14:26;17.70;53.90
1590;DHT22;788;48.720;9.158;2022-09-21T17:16:55;17.60;54.20